createdAt,value
2019-06-26T00:01:00.080Z,20.30
2019-06-26T00:03:28.879Z,20.30
2019-06-26T00:06:00.062Z,20.40
2019-06-26T00:08:28.897Z,20.30
2019-06-26T00:10:57.699Z,20.30
2019-06-26T00:13:27.061Z,20.30
2019-06-26T00:15:55.761Z,20.20
2019-06-26T00:18:24.325Z,20.30
2019-06-26T00:20:52.849Z,20.20
2019-06-26T00:23:21.295Z,20.20
2019-06-26T00:25:49.921Z,20.10
2019-06-26T00:28:19.765Z,20.10
2019-06-26T00:30:48.206Z,20.00
2019-06-26T00:33:16.985Z,20.10
2019-06-26T00:35:45.421Z,20.20
2019-06-26T00:38:13.879Z,20.10
2019-06-26T00:40:42.316Z,20.20
2019-06-26T00:43:11.059Z,20.20
2019-06-26T00:45:39.762Z,20.30
2019-06-26T00:48:08.464Z,20.30
2019-06-26T00:50:37.188Z,20.20
2019-06-26T00:53:05.624Z,20.30
2019-06-26T00:55:34.072Z,20.20
2019-06-26T00:58:02.537Z,20.20
2019-06-26T01:00:49.209Z,20.20
2019-06-26T01:03:17.891Z,20.30
2019-06-26T01:05:46.592Z,20.10
2019-06-26T01:08:15.063Z,20.00
2019-06-26T01:10:43.584Z,20.00
2019-06-26T01:13:12.105Z,19.90
2019-06-26T01:15:41.066Z,20.00
2019-06-26T01:18:09.499Z,20.00
2019-06-26T01:20:37.920Z,20.00
2019-06-26T01:23:06.374Z,19.90
2019-06-26T01:25:35.169Z,20.00
2019-06-26T01:28:03.680Z,19.90
2019-06-26T01:30:32.419Z,19.80
2019-06-26T01:33:01.226Z,19.60
2019-06-26T01:35:30.116Z,19.50
2019-06-26T01:37:59.034Z,19.50
2019-06-26T01:42:55.645Z,19.40
2019-06-26T01:45:24.458Z,19.40
2019-06-26T01:47:53.163Z,19.50
2019-06-26T01:50:21.601Z,19.50
2019-06-26T01:52:50.052Z,19.40
2019-06-26T01:55:18.742Z,19.50
2019-06-26T01:57:47.200Z,19.40
2019-06-26T02:00:16.575Z,19.40
2019-06-26T02:02:45.017Z,19.50
2019-06-26T02:05:13.945Z,19.50
2019-06-26T02:07:42.416Z,19.50
2019-06-26T02:10:12.041Z,19.60
2019-06-26T02:12:40.928Z,19.50
2019-06-26T02:15:09.422Z,19.50
2019-06-26T02:17:37.877Z,19.50
2019-06-26T02:20:09.563Z,19.60
2019-06-26T02:22:37.992Z,19.60
2019-06-26T02:25:07.400Z,19.60
2019-06-26T02:27:35.950Z,19.70
2019-06-26T02:30:07.761Z,19.80
2019-06-26T02:32:36.552Z,19.90
2019-06-26T02:35:09.994Z,19.90
2019-06-26T02:37:37.510Z,20.00
2019-06-26T02:40:07.009Z,19.90
2019-06-26T02:42:35.704Z,20.00
2019-06-26T02:45:05.596Z,20.00
2019-06-26T02:47:34.660Z,20.00
2019-06-26T02:50:04.264Z,20.00
2019-06-26T02:52:33.069Z,20.00
2019-06-26T02:55:02.050Z,20.00
2019-06-26T02:57:30.735Z,20.10
2019-06-26T03:00:00.645Z,20.00
2019-06-26T03:02:29.427Z,19.80
2019-06-26T03:04:58.221Z,19.70
2019-06-26T03:07:27.000Z,19.70
2019-06-26T03:09:55.452Z,19.50
2019-06-26T03:12:23.885Z,19.30
2019-06-26T03:15:07.822Z,19.20
2019-06-26T03:17:22.858Z,19.20
2019-06-26T03:19:51.689Z,19.20
2019-06-26T03:22:20.180Z,19.40
2019-06-26T03:24:48.652Z,19.50
2019-06-26T03:27:17.420Z,19.50
2019-06-26T03:29:46.215Z,19.40
2019-06-26T03:32:14.703Z,19.30
2019-06-26T03:34:43.191Z,19.30
2019-06-26T03:37:11.645Z,19.40
2019-06-26T03:39:40.094Z,19.40
2019-06-26T03:42:09.021Z,19.40
2019-06-26T03:44:37.851Z,19.50
2019-06-26T03:47:06.577Z,19.50
2019-06-26T03:49:35.024Z,19.50
2019-06-26T03:52:03.763Z,19.60
2019-06-26T03:57:00.766Z,19.70
2019-06-26T03:59:29.288Z,19.70
2019-06-26T04:01:57.762Z,19.80
2019-06-26T04:04:26.584Z,20.00
2019-06-26T04:06:55.704Z,20.10
2019-06-26T04:09:24.221Z,20.30
2019-06-26T04:11:52.940Z,20.50
2019-06-26T04:14:21.731Z,20.70
2019-06-26T04:16:50.523Z,21.00
2019-06-26T04:19:19.226Z,21.50
2019-06-26T04:21:47.992Z,21.90
2019-06-26T04:24:16.792Z,22.30
2019-06-26T04:26:45.253Z,22.70
2019-06-26T04:29:13.683Z,23.10
2019-06-26T04:31:42.137Z,23.40
2019-06-26T04:34:10.908Z,23.70
2019-06-26T04:36:39.365Z,23.90
2019-06-26T04:39:07.868Z,24.10
2019-06-26T04:41:36.700Z,24.10
2019-06-26T04:44:05.241Z,24.00
2019-06-26T04:46:33.681Z,23.80
2019-06-26T04:49:02.128Z,23.60
2019-06-26T04:51:30.625Z,23.40
2019-06-26T04:53:59.083Z,23.20
2019-06-26T04:56:27.856Z,23.10
2019-06-26T04:58:56.297Z,23.00
2019-06-26T05:01:24.748Z,23.00
2019-06-26T05:03:53.184Z,23.00
2019-06-26T05:06:21.633Z,22.90
2019-06-26T05:08:50.077Z,22.60
2019-06-26T05:11:18.606Z,22.80
2019-06-26T05:13:47.040Z,23.30
2019-06-26T05:16:19.956Z,24.00
2019-06-26T05:18:45.719Z,24.90
2019-06-26T05:21:14.161Z,25.50
2019-06-26T05:23:42.913Z,26.00
2019-06-26T05:26:11.433Z,26.40
2019-06-26T05:28:39.868Z,26.60
2019-06-26T05:31:08.326Z,26.40
2019-06-26T05:33:36.777Z,26.00
2019-06-26T05:36:05.216Z,25.70
2019-06-26T05:38:33.658Z,25.50
2019-06-26T05:41:02.484Z,25.40
2019-06-26T05:43:30.984Z,25.10
2019-06-26T05:45:59.432Z,25.00
2019-06-26T05:48:27.873Z,25.00
2019-06-26T05:50:56.321Z,24.90
2019-06-26T05:53:24.755Z,24.90
2019-06-26T05:55:53.582Z,24.80
2019-06-26T05:58:22.023Z,24.90
2019-06-26T06:00:50.829Z,24.80
2019-06-26T06:03:19.721Z,24.90
2019-06-26T06:05:48.186Z,24.80
2019-06-26T06:08:16.684Z,24.80
2019-06-26T06:10:45.509Z,24.70
2019-06-26T06:13:13.965Z,24.70
2019-06-26T06:15:42.741Z,24.70
2019-06-26T06:18:12.456Z,24.70
2019-06-26T06:20:41.045Z,24.80
2019-06-26T06:23:09.487Z,24.80
2019-06-26T06:25:37.957Z,24.90
2019-06-26T06:28:06.426Z,24.90
2019-06-26T06:30:34.930Z,24.90
2019-06-26T06:33:03.372Z,24.90
2019-06-26T06:35:31.814Z,25.00
2019-06-26T06:38:00.516Z,25.10
2019-06-26T06:40:28.958Z,25.10
2019-06-26T06:42:57.397Z,25.10
2019-06-26T06:45:26.533Z,25.20
2019-06-26T06:47:55.223Z,25.20
2019-06-26T06:50:23.658Z,25.20
2019-06-26T06:52:52.168Z,25.30
2019-06-26T06:55:20.704Z,25.20
2019-06-26T06:57:49.206Z,25.20
2019-06-26T07:00:18.164Z,25.20
2019-06-26T07:02:46.607Z,25.30
2019-06-26T07:05:15.287Z,25.30
2019-06-26T07:07:43.802Z,25.40
2019-06-26T07:10:12.832Z,25.50
2019-06-26T07:13:00.770Z,25.50
2019-06-26T07:15:29.249Z,25.50
2019-06-26T07:17:58.184Z,25.60
2019-06-26T07:20:26.629Z,25.70
2019-06-26T07:22:55.069Z,25.70
2019-06-26T07:25:24.201Z,25.80
2019-06-26T07:27:52.657Z,25.80
2019-06-26T07:30:22.005Z,25.90
2019-06-26T07:32:50.494Z,25.90
2019-06-26T07:35:18.950Z,26.00
2019-06-26T07:37:47.500Z,26.10
2019-06-26T07:40:16.865Z,26.20
2019-06-26T07:42:45.385Z,26.20
2019-06-26T07:45:14.617Z,26.30
2019-06-26T07:47:44.337Z,26.40
2019-06-26T07:50:13.346Z,26.40
2019-06-26T07:52:42.171Z,26.50
2019-06-26T07:55:12.328Z,26.60
2019-06-26T07:57:41.246Z,26.60
2019-06-26T08:00:10.816Z,26.70
2019-06-26T08:02:39.305Z,26.80
2019-06-26T08:05:10.435Z,26.70
2019-06-26T08:07:38.894Z,26.80
2019-06-26T08:10:08.147Z,26.90
2019-06-26T08:12:36.596Z,27.00
2019-06-26T08:15:08.384Z,27.00
2019-06-26T08:17:36.827Z,27.10
2019-06-26T08:20:05.801Z,27.20
2019-06-26T08:22:34.540Z,27.20
2019-06-26T08:25:03.407Z,27.30
2019-06-26T08:27:35.284Z,27.40
2019-06-26T08:30:05.834Z,27.40
2019-06-26T08:32:34.364Z,27.50
2019-06-26T08:35:03.066Z,27.60
2019-06-26T08:37:32.041Z,27.70
2019-06-26T08:40:00.878Z,27.80
2019-06-26T08:42:29.676Z,27.90
2019-06-26T08:44:58.360Z,28.00
2019-06-26T08:49:55.341Z,28.70
2019-06-26T08:52:24.305Z,29.00
2019-06-26T08:59:49.120Z,29.30
2019-06-26T09:02:17.628Z,29.50
2019-06-26T09:04:46.269Z,30.80
2019-06-26T09:12:11.413Z,30.00
2019-06-26T09:14:39.855Z,30.00
2019-06-26T09:17:08.360Z,30.00
2019-06-26T09:22:05.288Z,29.90
2019-06-26T09:24:33.760Z,30.00
2019-06-26T09:27:04.409Z,30.10
2019-06-26T09:29:33.650Z,30.10
2019-06-26T09:32:02.346Z,30.50
2019-06-26T09:34:30.848Z,30.50
2019-06-26T09:36:59.546Z,30.70
2019-06-26T09:39:28.258Z,30.70
2019-06-26T09:41:56.697Z,30.90
2019-06-26T09:44:25.243Z,30.90
2019-06-26T09:46:53.698Z,31.00
2019-06-26T09:49:22.513Z,31.10
2019-06-26T09:51:50.948Z,31.10
2019-06-26T09:54:19.409Z,31.20
2019-06-26T09:56:47.843Z,31.20
2019-06-26T09:59:16.364Z,31.30
2019-06-26T10:01:44.802Z,31.30
2019-06-26T10:04:13.613Z,31.40
2019-06-26T10:06:42.358Z,31.40
2019-06-26T10:09:10.888Z,31.40
2019-06-26T10:11:39.358Z,31.40
2019-06-26T10:14:08.118Z,31.50
2019-06-26T10:16:36.770Z,31.70
2019-06-26T10:19:10.189Z,31.70
2019-06-26T10:21:35.402Z,31.70
2019-06-26T10:24:03.916Z,31.80
2019-06-26T10:26:32.770Z,31.90
2019-06-26T10:29:01.453Z,31.90
2019-06-26T10:31:30.430Z,32.00
2019-06-26T10:33:58.937Z,32.10
2019-06-26T10:36:27.653Z,32.10
2019-06-26T10:38:56.361Z,32.20
2019-06-26T10:41:25.062Z,32.30
2019-06-26T10:43:53.877Z,32.30
2019-06-26T10:46:22.361Z,32.30
2019-06-26T10:48:51.072Z,32.40
2019-06-26T10:51:19.511Z,32.40
2019-06-26T10:53:48.213Z,32.50
2019-06-26T10:56:17.025Z,32.50
2019-06-26T10:58:45.507Z,32.60
2019-06-26T11:01:14.234Z,32.70
2019-06-26T11:03:42.924Z,32.70
2019-06-26T11:06:11.922Z,32.70
2019-06-26T11:08:40.349Z,32.80
2019-06-26T11:11:08.797Z,32.90
2019-06-26T11:13:37.240Z,32.80
2019-06-26T11:16:05.757Z,32.90
2019-06-26T11:18:34.200Z,30.20
2019-06-26T11:21:02.679Z,33.00
2019-06-26T11:23:31.186Z,33.00
2019-06-26T11:25:59.689Z,33.00
2019-06-26T11:28:28.105Z,33.00
2019-06-26T11:30:56.556Z,32.90
2019-06-26T11:33:24.992Z,32.90
2019-06-26T11:35:53.722Z,33.00
2019-06-26T11:38:22.192Z,32.90
2019-06-26T11:40:50.651Z,33.00
2019-06-26T11:43:19.177Z,32.90
2019-06-26T11:45:47.693Z,32.90
2019-06-26T11:48:16.420Z,32.90
2019-06-26T11:50:45.225Z,32.90
2019-06-26T11:53:14.059Z,32.70
2019-06-26T11:55:42.817Z,32.70
2019-06-26T11:58:11.586Z,32.70
2019-06-26T12:00:41.721Z,32.60
2019-06-26T12:03:13.196Z,32.70
2019-06-26T12:05:40.754Z,32.90
2019-06-26T12:08:09.232Z,32.90
2019-06-26T12:10:37.820Z,33.00
2019-06-26T12:13:06.333Z,33.10
2019-06-26T12:15:34.790Z,33.00
2019-06-26T12:18:03.541Z,33.10
2019-06-26T12:20:32.292Z,33.20
2019-06-26T12:23:00.792Z,33.20
2019-06-26T12:25:29.330Z,33.20
2019-06-26T12:27:57.832Z,33.00
2019-06-26T12:30:26.796Z,33.00
2019-06-26T12:33:02.765Z,33.00
2019-06-26T12:35:25.773Z,33.00
2019-06-26T12:37:54.568Z,33.10
2019-06-26T12:40:23.132Z,33.00
2019-06-26T12:42:54.643Z,33.10
2019-06-26T12:45:22.472Z,33.20
2019-06-26T12:47:50.948Z,33.20
2019-06-26T12:50:34.567Z,33.20
2019-06-26T12:52:52.659Z,33.30
2019-06-26T12:55:21.091Z,33.30
2019-06-26T12:57:49.544Z,33.30
2019-06-26T13:00:18.324Z,33.30
2019-06-26T13:02:47.032Z,33.40
2019-06-26T13:05:16.976Z,33.40
2019-06-26T13:07:45.697Z,33.40
2019-06-26T13:10:14.848Z,33.40
2019-06-26T13:12:45.756Z,33.40
2019-06-26T13:15:13.603Z,33.50
2019-06-26T13:17:42.121Z,33.50
2019-06-26T13:20:11.003Z,33.50
2019-06-26T13:22:39.525Z,33.40
2019-06-26T13:25:08.978Z,33.20
2019-06-26T13:27:37.427Z,33.10
2019-06-26T13:30:07.203Z,33.30
2019-06-26T13:32:35.732Z,33.30
2019-06-26T13:35:05.710Z,33.50
2019-06-26T13:37:34.436Z,33.60
2019-06-26T13:40:03.039Z,33.60
2019-06-26T13:42:31.738Z,33.60
2019-06-26T13:45:00.527Z,33.50
2019-06-26T13:47:29.314Z,33.40
2019-06-26T13:49:58.750Z,33.50
2019-06-26T13:52:27.201Z,33.60
2019-06-26T13:54:57.357Z,33.70
2019-06-26T13:57:26.080Z,33.30
2019-06-26T13:59:54.519Z,33.40
2019-06-26T14:02:23.249Z,33.50
2019-06-26T14:04:51.684Z,33.50
2019-06-26T14:07:20.138Z,33.60
2019-06-26T14:09:48.578Z,33.60
2019-06-26T14:12:19.225Z,33.50
2019-06-26T14:14:57.247Z,33.60
2019-06-26T14:17:17.357Z,33.70
2019-06-26T14:19:45.816Z,33.70
2019-06-26T14:22:14.503Z,33.80
2019-06-26T14:24:43.210Z,33.80
2019-06-26T14:27:11.911Z,33.80
2019-06-26T14:29:40.427Z,33.80
2019-06-26T14:32:08.856Z,33.70
2019-06-26T14:34:37.372Z,33.80
2019-06-26T14:37:05.812Z,33.80
2019-06-26T14:39:34.266Z,33.80
2019-06-26T14:42:02.958Z,33.80
2019-06-26T14:44:31.425Z,33.80
2019-06-26T14:46:59.872Z,33.80
2019-06-26T14:49:28.328Z,33.70
2019-06-26T14:51:56.765Z,33.70
2019-06-26T14:54:25.204Z,33.80
2019-06-26T14:56:53.738Z,33.90
2019-06-26T14:59:22.505Z,34.00
2019-06-26T15:01:50.937Z,34.10
2019-06-26T15:04:19.380Z,34.10
2019-06-26T15:06:47.817Z,34.10
2019-06-26T15:09:16.582Z,34.10
2019-06-26T15:11:45.072Z,34.10
2019-06-26T15:14:13.576Z,34.10
2019-06-26T15:16:42.011Z,34.00
2019-06-26T15:19:10.535Z,34.00
2019-06-26T15:21:39.300Z,34.00
2019-06-26T15:24:08.008Z,34.00
2019-06-26T15:26:36.442Z,34.00
2019-06-26T15:29:04.961Z,34.00
2019-06-26T15:31:33.644Z,34.00
2019-06-26T15:34:02.110Z,33.90
2019-06-26T15:36:30.974Z,33.90
2019-06-26T15:38:59.457Z,33.80
2019-06-26T15:41:27.933Z,33.80
2019-06-26T15:43:56.383Z,34.40
2019-06-26T15:46:25.771Z,34.00
2019-06-26T15:48:54.481Z,34.00
2019-06-26T15:51:22.921Z,33.60
2019-06-26T15:53:51.381Z,33.20
2019-06-26T15:56:19.825Z,33.00
2019-06-26T15:58:48.273Z,33.20
2019-06-26T16:01:16.787Z,33.20
2019-06-26T16:03:45.225Z,33.30
2019-06-26T16:08:42.386Z,33.30
2019-06-26T16:26:02.146Z,33.50
2019-06-26T16:28:30.685Z,33.60
2019-06-26T16:35:55.989Z,33.60
2019-06-26T16:38:24.662Z,33.60
2019-06-26T16:40:53.421Z,33.50
2019-06-26T16:45:50.494Z,33.40
2019-06-26T16:48:18.936Z,33.40
2019-06-26T16:50:47.664Z,33.50
2019-06-26T16:53:16.181Z,33.60
2019-06-26T17:03:10.069Z,33.50
2019-06-26T17:15:31.269Z,33.30
2019-06-26T17:17:59.753Z,33.30
2019-06-26T17:20:28.207Z,33.30
2019-06-26T17:23:05.572Z,33.30
2019-06-26T17:25:27.156Z,33.30
2019-06-26T17:27:55.852Z,33.30
2019-06-26T17:30:24.382Z,33.30
2019-06-26T17:35:21.357Z,33.10
2019-06-26T17:50:11.401Z,32.20
2019-06-26T17:52:39.840Z,32.30
2019-06-26T17:55:09.425Z,32.30
2019-06-26T17:57:37.913Z,32.30
2019-06-26T18:00:09.269Z,32.30
2019-06-26T18:02:37.723Z,32.30
2019-06-26T18:05:06.519Z,32.30
2019-06-26T18:07:34.954Z,32.20
2019-06-26T18:10:04.950Z,32.10
2019-06-26T18:19:57.973Z,31.80
2019-06-26T18:22:26.674Z,31.70
2019-06-26T18:24:55.106Z,31.60
2019-06-26T18:27:23.809Z,31.50
2019-06-26T18:29:52.514Z,31.50
2019-06-26T18:34:49.386Z,31.30
2019-06-26T18:37:18.102Z,31.30
2019-06-26T18:39:46.537Z,31.20
2019-06-26T18:42:15.231Z,31.10
2019-06-26T18:44:43.958Z,31.00
2019-06-26T18:54:37.263Z,30.50
2019-06-26T18:57:05.761Z,30.40
2019-06-26T19:02:02.412Z,30.10
2019-06-26T19:09:27.356Z,29.70
2019-06-26T19:11:55.805Z,29.60
2019-06-26T19:16:52.446Z,29.30
2019-06-26T19:19:21.129Z,29.10
2019-06-26T19:29:13.927Z,28.60
2019-06-26T19:31:42.406Z,28.20
2019-06-26T19:34:11.158Z,28.10
2019-06-26T19:58:57.017Z,26.70
2019-06-26T20:01:25.465Z,26.50
2019-06-26T20:21:13.809Z,25.90
2019-06-26T20:23:42.261Z,25.80
2019-06-26T20:28:39.381Z,25.60
2019-06-26T20:33:37.001Z,25.40
2019-06-26T20:36:05.441Z,25.30
2019-06-26T20:50:54.958Z,24.70
2019-06-26T20:55:51.766Z,24.80
2019-06-26T20:58:20.213Z,24.80
2019-06-26T21:15:38.553Z,24.20
2019-06-26T21:18:07.272Z,24.20
2019-06-26T21:30:28.881Z,23.90
2019-06-26T21:40:21.932Z,23.60
2019-06-26T21:47:49.540Z,23.60
2019-06-26T21:50:18.359Z,23.60
2019-06-26T22:00:13.163Z,23.30
2019-06-26T22:17:33.127Z,23.00
2019-06-26T22:22:29.933Z,23.00
2019-06-26T22:24:58.489Z,23.00
2019-06-26T22:39:48.430Z,22.90
2019-06-26T22:42:16.863Z,22.90
2019-06-26T22:44:45.565Z,22.80
2019-06-26T22:54:38.626Z,22.60
2019-06-26T22:57:07.329Z,22.60
2019-06-26T22:59:35.798Z,22.60
2019-06-26T23:26:46.155Z,22.70
2019-06-26T23:29:14.605Z,22.80
2019-06-26T23:36:39.813Z,22.90
2019-06-26T23:44:05.177Z,22.60
2019-06-26T23:46:33.633Z,22.50
2019-06-26T23:49:02.079Z,22.40
2019-06-26T23:58:56.624Z,22.40
